sensor_id;sensor_type;location;lat;lon;timestamp;temperature;humidity
12053;DHT22;6087;48.982;12.064;2023-09-12T00:01:53;22.60;6.00
12053;DHT22;6087;48.982;12.064;2023-09-12T00:04:20;22.60;6.40
12053;DHT22;6087;48.982;12.064;2023-09-12T00:06:48;22.60;6.90
12053;DHT22;6087;48.982;12.064;2023-09-12T00:09:15;22.50;7.10
12053;DHT22;6087;48.982;12.064;2023-09-12T00:11:42;22.50;7.70
12053;DHT22;6087;48.982;12.064;2023-09-12T00:14:09;22.50;8.00
12053;DHT22;6087;48.982;12.064;2023-09-12T00:16:36;22.40;8.10
12053;DHT22;6087;48.982;12.064;2023-09-12T00:19:03;22.40;8.50
12053;DHT22;6087;48.982;12.064;2023-09-12T00:21:30;22.40;9.00
12053;DHT22;6087;48.982;12.064;2023-09-12T00:23:58;22.40;9.10
12053;DHT22;6087;48.982;12.064;2023-09-12T00:26:25;22.40;9.60
12053;DHT22;6087;48.982;12.064;2023-09-12T00:28:52;22.30;9.70
12053;DHT22;6087;48.982;12.064;2023-09-12T00:31:20;22.30;10.10
12053;DHT22;6087;48.982;12.064;2023-09-12T00:33:47;22.20;10.70
12053;DHT22;6087;48.982;12.064;2023-09-12T00:36:14;22.20;10.70
12053;DHT22;6087;48.982;12.064;2023-09-12T00:38:41;22.20;11.30
12053;DHT22;6087;48.982;12.064;2023-09-12T00:41:09;22.10;11.20
12053;DHT22;6087;48.982;12.064;2023-09-12T00:43:36;22.10;11.50
12053;DHT22;6087;48.982;12.064;2023-09-12T00:46:05;22.10;11.50
12053;DHT22;6087;48.982;12.064;2023-09-12T00:48:32;22.10;11.90
12053;DHT22;6087;48.982;12.064;2023-09-12T00:51:00;22.10;12.80
12053;DHT22;6087;48.982;12.064;2023-09-12T00:53:29;22.10;13.10
12053;DHT22;6087;48.982;12.064;2023-09-12T00:55:57;22.10;13.20
12053;DHT22;6087;48.982;12.064;2023-09-12T00:58:27;22.00;13.90
12053;DHT22;6087;48.982;12.064;2023-09-12T01:00:54;22.00;14.50
12053;DHT22;6087;48.982;12.064;2023-09-12T01:03:23;22.00;15.10
12053;DHT22;6087;48.982;12.064;2023-09-12T01:05:51;22.00;14.80
12053;DHT22;6087;48.982;12.064;2023-09-12T01:08:18;22.00;15.20
12053;DHT22;6087;48.982;12.064;2023-09-12T01:10:48;22.10;15.40
12053;DHT22;6087;48.982;12.064;2023-09-12T01:13:17;22.10;15.70
12053;DHT22;6087;48.982;12.064;2023-09-12T01:15:45;22.10;16.00
12053;DHT22;6087;48.982;12.064;2023-09-12T01:18:12;22.00;16.30
12053;DHT22;6087;48.982;12.064;2023-09-12T01:20:43;22.00;16.50
12053;DHT22;6087;48.982;12.064;2023-09-12T01:23:30;22.00;16.70
12053;DHT22;6087;48.982;12.064;2023-09-12T01:26:17;22.00;16.70
12053;DHT22;6087;48.982;12.064;2023-09-12T01:28:48;22.00;16.90
12053;DHT22;6087;48.982;12.064;2023-09-12T01:31:16;22.00;17.30
12053;DHT22;6087;48.982;12.064;2023-09-12T01:33:50;22.00;17.90
12053;DHT22;6087;48.982;12.064;2023-09-12T01:36:21;21.90;17.80
12053;DHT22;6087;48.982;12.064;2023-09-12T01:38:51;21.90;18.30
12053;DHT22;6087;48.982;12.064;2023-09-12T01:41:18;21.90;18.10
12053;DHT22;6087;48.982;12.064;2023-09-12T01:43:48;21.90;18.30
12053;DHT22;6087;48.982;12.064;2023-09-12T01:46:18;21.90;18.50
12053;DHT22;6087;48.982;12.064;2023-09-12T01:48:50;21.90;18.60
12053;DHT22;6087;48.982;12.064;2023-09-12T01:51:18;21.90;19.00
12053;DHT22;6087;48.982;12.064;2023-09-12T01:53:45;21.90;18.90
12053;DHT22;6087;48.982;12.064;2023-09-12T01:56:14;21.90;19.10
12053;DHT22;6087;48.982;12.064;2023-09-12T01:58:41;21.80;19.30
12053;DHT22;6087;48.982;12.064;2023-09-12T02:01:09;21.80;19.70
12053;DHT22;6087;48.982;12.064;2023-09-12T02:03:38;21.80;20.00
12053;DHT22;6087;48.982;12.064;2023-09-12T02:06:05;21.80;19.80
12053;DHT22;6087;48.982;12.064;2023-09-12T02:08:42;21.80;19.90
12053;DHT22;6087;48.982;12.064;2023-09-12T02:11:09;21.80;20.40
12053;DHT22;6087;48.982;12.064;2023-09-12T02:13:36;21.70;20.20
12053;DHT22;6087;48.982;12.064;2023-09-12T02:16:03;21.70;20.60
12053;DHT22;6087;48.982;12.064;2023-09-12T02:18:31;21.70;20.70
12053;DHT22;6087;48.982;12.064;2023-09-12T02:21:01;21.70;20.70
12053;DHT22;6087;48.982;12.064;2023-09-12T02:23:37;21.70;21.10
12053;DHT22;6087;48.982;12.064;2023-09-12T02:26:04;21.70;20.40
12053;DHT22;6087;48.982;12.064;2023-09-12T02:28:31;21.60;19.40
12053;DHT22;6087;48.982;12.064;2023-09-12T02:30:58;21.50;19.40
12053;DHT22;6087;48.982;12.064;2023-09-12T02:33:25;21.50;19.40
12053;DHT22;6087;48.982;12.064;2023-09-12T02:35:53;21.40;19.50
12053;DHT22;6087;48.982;12.064;2023-09-12T02:38:20;21.40;19.70
12053;DHT22;6087;48.982;12.064;2023-09-12T02:40:47;21.40;19.90
12053;DHT22;6087;48.982;12.064;2023-09-12T02:43:14;21.30;19.90
12053;DHT22;6087;48.982;12.064;2023-09-12T02:45:40;21.30;20.10
12053;DHT22;6087;48.982;12.064;2023-09-12T02:48:07;21.20;20.20
12053;DHT22;6087;48.982;12.064;2023-09-12T02:50:34;21.20;20.30
12053;DHT22;6087;48.982;12.064;2023-09-12T02:53:03;21.20;20.40
12053;DHT22;6087;48.982;12.064;2023-09-12T02:55:30;21.10;20.50
12053;DHT22;6087;48.982;12.064;2023-09-12T02:57:57;21.10;20.60
12053;DHT22;6087;48.982;12.064;2023-09-12T03:00:24;21.10;20.90
12053;DHT22;6087;48.982;12.064;2023-09-12T03:02:50;21.10;21.30
12053;DHT22;6087;48.982;12.064;2023-09-12T03:05:17;21.00;21.70
12053;DHT22;6087;48.982;12.064;2023-09-12T03:07:44;20.90;22.00
12053;DHT22;6087;48.982;12.064;2023-09-12T03:10:13;20.90;22.20
12053;DHT22;6087;48.982;12.064;2023-09-12T03:12:40;20.90;22.40
12053;DHT22;6087;48.982;12.064;2023-09-12T03:15:08;20.90;22.80
12053;DHT22;6087;48.982;12.064;2023-09-12T03:17:35;20.90;23.00
12053;DHT22;6087;48.982;12.064;2023-09-12T03:20:03;20.80;23.10
12053;DHT22;6087;48.982;12.064;2023-09-12T03:22:32;20.80;23.30
12053;DHT22;6087;48.982;12.064;2023-09-12T03:25:03;20.80;24.00
12053;DHT22;6087;48.982;12.064;2023-09-12T03:27:35;20.80;24.00
12053;DHT22;6087;48.982;12.064;2023-09-12T03:30:03;20.80;24.30
12053;DHT22;6087;48.982;12.064;2023-09-12T03:32:31;20.70;24.60
12053;DHT22;6087;48.982;12.064;2023-09-12T03:34:57;20.70;24.70
12053;DHT22;6087;48.982;12.064;2023-09-12T03:37:24;20.70;24.70
12053;DHT22;6087;48.982;12.064;2023-09-12T03:39:52;20.70;25.40
12053;DHT22;6087;48.982;12.064;2023-09-12T03:42:19;20.80;25.80
12053;DHT22;6087;48.982;12.064;2023-09-12T03:44:48;20.80;26.60
12053;DHT22;6087;48.982;12.064;2023-09-12T03:47:15;20.80;27.40
12053;DHT22;6087;48.982;12.064;2023-09-12T03:49:42;20.80;27.80
12053;DHT22;6087;48.982;12.064;2023-09-12T03:52:08;20.80;28.40
12053;DHT22;6087;48.982;12.064;2023-09-12T03:54:35;20.80;29.30
12053;DHT22;6087;48.982;12.064;2023-09-12T03:57:03;20.80;29.30
12053;DHT22;6087;48.982;12.064;2023-09-12T03:59:29;20.80;29.60
12053;DHT22;6087;48.982;12.064;2023-09-12T04:01:58;20.80;30.40
12053;DHT22;6087;48.982;12.064;2023-09-12T04:04:25;20.80;29.90
12053;DHT22;6087;48.982;12.064;2023-09-12T04:06:52;20.80;29.50
12053;DHT22;6087;48.982;12.064;2023-09-12T04:09:19;20.80;29.70
12053;DHT22;6087;48.982;12.064;2023-09-12T04:11:51;20.80;30.30
12053;DHT22;6087;48.982;12.064;2023-09-12T04:14:21;20.80;30.30
12053;DHT22;6087;48.982;12.064;2023-09-12T04:16:48;20.80;31.20
12053;DHT22;6087;48.982;12.064;2023-09-12T04:19:19;20.80;30.60
12053;DHT22;6087;48.982;12.064;2023-09-12T04:21:46;20.80;30.60
12053;DHT22;6087;48.982;12.064;2023-09-12T04:24:13;20.70;31.20
12053;DHT22;6087;48.982;12.064;2023-09-12T04:26:44;20.70;30.80
12053;DHT22;6087;48.982;12.064;2023-09-12T04:29:17;20.70;31.20
12053;DHT22;6087;48.982;12.064;2023-09-12T04:31:44;20.70;31.50
12053;DHT22;6087;48.982;12.064;2023-09-12T04:34:11;20.70;31.60
12053;DHT22;6087;48.982;12.064;2023-09-12T04:36:39;20.70;31.90
12053;DHT22;6087;48.982;12.064;2023-09-12T04:39:06;20.70;31.90
12053;DHT22;6087;48.982;12.064;2023-09-12T04:41:36;20.70;31.30
12053;DHT22;6087;48.982;12.064;2023-09-12T04:44:07;20.70;31.90
12053;DHT22;6087;48.982;12.064;2023-09-12T04:46:34;20.70;31.50
12053;DHT22;6087;48.982;12.064;2023-09-12T04:49:01;20.60;32.60
12053;DHT22;6087;48.982;12.064;2023-09-12T04:51:30;20.60;32.70
12053;DHT22;6087;48.982;12.064;2023-09-12T04:53:59;20.60;33.40
12053;DHT22;6087;48.982;12.064;2023-09-12T04:56:26;20.60;33.60
12053;DHT22;6087;48.982;12.064;2023-09-12T04:58:58;20.60;33.40
12053;DHT22;6087;48.982;12.064;2023-09-12T05:01:28;20.60;33.80
12053;DHT22;6087;48.982;12.064;2023-09-12T05:03:55;20.60;34.00
12053;DHT22;6087;48.982;12.064;2023-09-12T05:06:22;20.60;34.20
12053;DHT22;6087;48.982;12.064;2023-09-12T05:08:48;20.60;33.90
12053;DHT22;6087;48.982;12.064;2023-09-12T05:11:17;20.60;33.60
12053;DHT22;6087;48.982;12.064;2023-09-12T05:13:44;20.60;34.40
12053;DHT22;6087;48.982;12.064;2023-09-12T05:16:11;20.60;33.80
12053;DHT22;6087;48.982;12.064;2023-09-12T05:18:38;20.60;33.70
12053;DHT22;6087;48.982;12.064;2023-09-12T05:21:04;20.60;34.40
12053;DHT22;6087;48.982;12.064;2023-09-12T05:23:31;20.60;34.10
12053;DHT22;6087;48.982;12.064;2023-09-12T05:25:58;20.60;33.80
12053;DHT22;6087;48.982;12.064;2023-09-12T05:28:27;20.60;33.70
12053;DHT22;6087;48.982;12.064;2023-09-12T05:30:57;20.60;34.10
12053;DHT22;6087;48.982;12.064;2023-09-12T05:33:24;20.50;33.90
12053;DHT22;6087;48.982;12.064;2023-09-12T05:35:51;20.50;34.30
12053;DHT22;6087;48.982;12.064;2023-09-12T05:38:18;20.50;34.70
12053;DHT22;6087;48.982;12.064;2023-09-12T05:40:44;20.50;34.60
12053;DHT22;6087;48.982;12.064;2023-09-12T05:43:11;20.50;34.60
12053;DHT22;6087;48.982;12.064;2023-09-12T05:45:40;20.50;34.90
12053;DHT22;6087;48.982;12.064;2023-09-12T05:48:07;20.50;35.00
12053;DHT22;6087;48.982;12.064;2023-09-12T05:50:35;20.50;34.80
12053;DHT22;6087;48.982;12.064;2023-09-12T05:53:02;20.50;35.20
12053;DHT22;6087;48.982;12.064;2023-09-12T05:55:29;20.50;35.80
12053;DHT22;6087;48.982;12.064;2023-09-12T05:57:56;20.50;35.70
12053;DHT22;6087;48.982;12.064;2023-09-12T06:00:23;20.50;36.30
12053;DHT22;6087;48.982;12.064;2023-09-12T06:02:52;20.50;36.70
12053;DHT22;6087;48.982;12.064;2023-09-12T06:05:19;20.60;37.30
12053;DHT22;6087;48.982;12.064;2023-09-12T06:07:46;20.60;37.40
12053;DHT22;6087;48.982;12.064;2023-09-12T06:10:13;20.50;37.40
12053;DHT22;6087;48.982;12.064;2023-09-12T06:12:39;20.60;37.30
12053;DHT22;6087;48.982;12.064;2023-09-12T06:15:07;20.60;37.20
12053;DHT22;6087;48.982;12.064;2023-09-12T06:17:34;20.60;37.10
12053;DHT22;6087;48.982;12.064;2023-09-12T06:20:03;20.60;36.90
12053;DHT22;6087;48.982;12.064;2023-09-12T06:22:31;20.60;37.00
12053;DHT22;6087;48.982;12.064;2023-09-12T06:24:59;20.70;36.70
12053;DHT22;6087;48.982;12.064;2023-09-12T06:27:26;20.70;37.70
12053;DHT22;6087;48.982;12.064;2023-09-12T06:29:53;20.70;38.40
12053;DHT22;6087;48.982;12.064;2023-09-12T06:32:20;20.70;37.90
12053;DHT22;6087;48.982;12.064;2023-09-12T06:34:47;20.80;38.00
12053;DHT22;6087;48.982;12.064;2023-09-12T06:37:15;20.80;39.00
12053;DHT22;6087;48.982;12.064;2023-09-12T06:39:42;20.80;40.20
12053;DHT22;6087;48.982;12.064;2023-09-12T06:42:09;20.80;40.40
12053;DHT22;6087;48.982;12.064;2023-09-12T06:44:36;20.80;39.20
12053;DHT22;6087;48.982;12.064;2023-09-12T06:47:06;20.80;39.60
12053;DHT22;6087;48.982;12.064;2023-09-12T06:49:34;20.80;39.40
12053;DHT22;6087;48.982;12.064;2023-09-12T06:52:03;20.90;38.30
12053;DHT22;6087;48.982;12.064;2023-09-12T06:54:32;20.90;38.10
12053;DHT22;6087;48.982;12.064;2023-09-12T06:56:59;20.90;40.50
12053;DHT22;6087;48.982;12.064;2023-09-12T06:59:26;20.90;41.40
12053;DHT22;6087;48.982;12.064;2023-09-12T07:01:53;20.90;40.90
12053;DHT22;6087;48.982;12.064;2023-09-12T07:04:20;21.00;39.90
12053;DHT22;6087;48.982;12.064;2023-09-12T07:06:47;21.00;39.10
12053;DHT22;6087;48.982;12.064;2023-09-12T07:09:14;21.00;38.70
12053;DHT22;6087;48.982;12.064;2023-09-12T07:11:43;21.10;38.80
12053;DHT22;6087;48.982;12.064;2023-09-12T07:14:10;21.10;40.50
12053;DHT22;6087;48.982;12.064;2023-09-12T07:16:40;21.10;40.70
12053;DHT22;6087;48.982;12.064;2023-09-12T07:19:07;21.10;40.20
12053;DHT22;6087;48.982;12.064;2023-09-12T07:21:35;21.20;39.20
12053;DHT22;6087;48.982;12.064;2023-09-12T07:24:02;21.20;38.40
12053;DHT22;6087;48.982;12.064;2023-09-12T07:26:29;21.20;37.30
12053;DHT22;6087;48.982;12.064;2023-09-12T07:28:58;21.20;37.20
12053;DHT22;6087;48.982;12.064;2023-09-12T07:31:28;21.30;37.80
12053;DHT22;6087;48.982;12.064;2023-09-12T07:33:55;21.30;38.10
12053;DHT22;6087;48.982;12.064;2023-09-12T07:36:22;21.30;38.30
12053;DHT22;6087;48.982;12.064;2023-09-12T07:38:48;21.30;37.10
12053;DHT22;6087;48.982;12.064;2023-09-12T07:41:15;21.40;37.80
12053;DHT22;6087;48.982;12.064;2023-09-12T07:43:46;21.40;39.80
12053;DHT22;6087;48.982;12.064;2023-09-12T07:46:14;21.40;38.50
12053;DHT22;6087;48.982;12.064;2023-09-12T07:48:41;21.50;39.80
12053;DHT22;6087;48.982;12.064;2023-09-12T07:51:12;21.50;38.30
12053;DHT22;6087;48.982;12.064;2023-09-12T07:53:40;21.50;40.30
12053;DHT22;6087;48.982;12.064;2023-09-12T07:56:08;21.50;37.60
12053;DHT22;6087;48.982;12.064;2023-09-12T07:58:36;21.60;39.40
12053;DHT22;6087;48.982;12.064;2023-09-12T08:01:05;21.50;37.60
12053;DHT22;6087;48.982;12.064;2023-09-12T08:03:34;21.60;40.10
12053;DHT22;6087;48.982;12.064;2023-09-12T08:06:02;21.60;38.80
12053;DHT22;6087;48.982;12.064;2023-09-12T08:08:32;21.60;41.10
12053;DHT22;6087;48.982;12.064;2023-09-12T08:10:59;21.70;39.00
12053;DHT22;6087;48.982;12.064;2023-09-12T08:13:26;21.70;40.60
12053;DHT22;6087;48.982;12.064;2023-09-12T08:15:54;21.70;41.90
12053;DHT22;6087;48.982;12.064;2023-09-12T08:18:21;21.80;39.90
12053;DHT22;6087;48.982;12.064;2023-09-12T08:20:49;21.80;42.50
12053;DHT22;6087;48.982;12.064;2023-09-12T08:23:16;21.80;39.60
12053;DHT22;6087;48.982;12.064;2023-09-12T08:25:43;21.90;38.90
12053;DHT22;6087;48.982;12.064;2023-09-12T08:28:10;21.90;40.10
12053;DHT22;6087;48.982;12.064;2023-09-12T08:30:37;21.90;40.50
12053;DHT22;6087;48.982;12.064;2023-09-12T08:33:04;22.00;40.10
12053;DHT22;6087;48.982;12.064;2023-09-12T08:35:32;22.00;40.00
12053;DHT22;6087;48.982;12.064;2023-09-12T08:38:01;22.10;42.10
12053;DHT22;6087;48.982;12.064;2023-09-12T08:40:28;22.10;38.60
12053;DHT22;6087;48.982;12.064;2023-09-12T08:42:57;22.10;43.90
12053;DHT22;6087;48.982;12.064;2023-09-12T08:45:25;22.10;40.80
12053;DHT22;6087;48.982;12.064;2023-09-12T08:47:53;22.20;42.20
12053;DHT22;6087;48.982;12.064;2023-09-12T08:50:21;22.20;42.40
12053;DHT22;6087;48.982;12.064;2023-09-12T08:52:49;22.30;45.70
12053;DHT22;6087;48.982;12.064;2023-09-12T08:55:17;22.30;45.30
12053;DHT22;6087;48.982;12.064;2023-09-12T08:57:50;22.30;43.20
12053;DHT22;6087;48.982;12.064;2023-09-12T09:00:17;22.30;41.10
12053;DHT22;6087;48.982;12.064;2023-09-12T09:02:45;22.30;42.20
12053;DHT22;6087;48.982;12.064;2023-09-12T09:05:13;22.40;45.40
12053;DHT22;6087;48.982;12.064;2023-09-12T09:07:41;22.40;44.60
12053;DHT22;6087;48.982;12.064;2023-09-12T09:10:13;22.50;44.10
12053;DHT22;6087;48.982;12.064;2023-09-12T09:12:43;22.50;43.20
12053;DHT22;6087;48.982;12.064;2023-09-12T09:15:21;22.50;44.30
12053;DHT22;6087;48.982;12.064;2023-09-12T09:17:48;22.60;45.40
12053;DHT22;6087;48.982;12.064;2023-09-12T09:20:26;22.60;46.10
12053;DHT22;6087;48.982;12.064;2023-09-12T09:22:57;22.60;46.40
12053;DHT22;6087;48.982;12.064;2023-09-12T09:25:24;22.60;46.70
12053;DHT22;6087;48.982;12.064;2023-09-12T09:27:53;22.60;46.60
12053;DHT22;6087;48.982;12.064;2023-09-12T09:30:40;22.70;45.00
12053;DHT22;6087;48.982;12.064;2023-09-12T09:33:07;22.70;48.40
12053;DHT22;6087;48.982;12.064;2023-09-12T09:35:35;22.80;46.60
12053;DHT22;6087;48.982;12.064;2023-09-12T09:38:03;22.80;45.80
12053;DHT22;6087;48.982;12.064;2023-09-12T09:40:35;22.90;43.90
12053;DHT22;6087;48.982;12.064;2023-09-12T09:43:04;22.90;44.90
12053;DHT22;6087;48.982;12.064;2023-09-12T09:45:31;22.90;46.10
12053;DHT22;6087;48.982;12.064;2023-09-12T09:47:58;23.00;42.60
12053;DHT22;6087;48.982;12.064;2023-09-12T09:50:26;23.10;38.80
12053;DHT22;6087;48.982;12.064;2023-09-12T09:52:56;23.10;33.90
12053;DHT22;6087;48.982;12.064;2023-09-12T09:55:24;23.20;29.50
12053;DHT22;6087;48.982;12.064;2023-09-12T09:57:51;23.20;29.50
12053;DHT22;6087;48.982;12.064;2023-09-12T10:00:23;23.40;28.20
12053;DHT22;6087;48.982;12.064;2023-09-12T10:02:51;23.40;28.20
12053;DHT22;6087;48.982;12.064;2023-09-12T10:05:19;23.50;27.30
12053;DHT22;6087;48.982;12.064;2023-09-12T10:07:50;23.60;27.40
12053;DHT22;6087;48.982;12.064;2023-09-12T10:10:19;23.60;26.30
12053;DHT22;6087;48.982;12.064;2023-09-12T10:12:50;23.60;27.40
12053;DHT22;6087;48.982;12.064;2023-09-12T10:15:20;23.60;27.60
12053;DHT22;6087;48.982;12.064;2023-09-12T10:17:54;23.70;26.00
12053;DHT22;6087;48.982;12.064;2023-09-12T10:20:25;23.80;27.80
12053;DHT22;6087;48.982;12.064;2023-09-12T10:23:01;23.80;27.50
12053;DHT22;6087;48.982;12.064;2023-09-12T10:25:35;23.90;27.00
12053;DHT22;6087;48.982;12.064;2023-09-12T10:28:04;23.90;27.10
12053;DHT22;6087;48.982;12.064;2023-09-12T10:30:33;24.00;25.30
12053;DHT22;6087;48.982;12.064;2023-09-12T10:33:02;24.10;26.90
12053;DHT22;6087;48.982;12.064;2023-09-12T10:35:30;24.10;27.80
12053;DHT22;6087;48.982;12.064;2023-09-12T10:37:59;24.20;26.50
12053;DHT22;6087;48.982;12.064;2023-09-12T10:40:29;24.20;26.20
12053;DHT22;6087;48.982;12.064;2023-09-12T10:42:57;24.30;26.10
12053;DHT22;6087;48.982;12.064;2023-09-12T10:45:30;24.50;25.60
12053;DHT22;6087;48.982;12.064;2023-09-12T10:47:59;24.50;25.10
12053;DHT22;6087;48.982;12.064;2023-09-12T10:50:26;24.50;25.40
12053;DHT22;6087;48.982;12.064;2023-09-12T10:52:54;24.60;24.50
12053;DHT22;6087;48.982;12.064;2023-09-12T10:55:21;24.60;23.50
12053;DHT22;6087;48.982;12.064;2023-09-12T10:58:00;24.60;23.20
12053;DHT22;6087;48.982;12.064;2023-09-12T11:00:28;24.60;23.20
12053;DHT22;6087;48.982;12.064;2023-09-12T11:03:00;24.70;23.20
12053;DHT22;6087;48.982;12.064;2023-09-12T11:05:54;24.80;22.40
12053;DHT22;6087;48.982;12.064;2023-09-12T11:08:22;24.90;22.90
12053;DHT22;6087;48.982;12.064;2023-09-12T11:11:17;25.00;21.20
12053;DHT22;6087;48.982;12.064;2023-09-12T11:13:45;25.10;19.40
12053;DHT22;6087;48.982;12.064;2023-09-12T11:16:13;25.20;20.20
12053;DHT22;6087;48.982;12.064;2023-09-12T11:21:56;25.30;19.60
12053;DHT22;6087;48.982;12.064;2023-09-12T11:24:23;25.40;18.00
12053;DHT22;6087;48.982;12.064;2023-09-12T11:26:57;25.40;18.40
12053;DHT22;6087;48.982;12.064;2023-09-12T11:29:28;25.50;17.80
12053;DHT22;6087;48.982;12.064;2023-09-12T11:31:58;25.60;18.70
12053;DHT22;6087;48.982;12.064;2023-09-12T11:34:25;25.60;17.90
12053;DHT22;6087;48.982;12.064;2023-09-12T11:36:56;25.70;17.70
12053;DHT22;6087;48.982;12.064;2023-09-12T11:39:27;25.80;16.30
12053;DHT22;6087;48.982;12.064;2023-09-12T11:41:56;25.80;16.60
12053;DHT22;6087;48.982;12.064;2023-09-12T11:44:23;25.90;16.60
12053;DHT22;6087;48.982;12.064;2023-09-12T11:46:52;26.00;17.10
12053;DHT22;6087;48.982;12.064;2023-09-12T11:49:19;26.10;16.30
12053;DHT22;6087;48.982;12.064;2023-09-12T11:51:48;26.10;13.40
12053;DHT22;6087;48.982;12.064;2023-09-12T11:54:18;26.20;14.00
12053;DHT22;6087;48.982;12.064;2023-09-12T11:56:46;26.30;14.90
12053;DHT22;6087;48.982;12.064;2023-09-12T11:59:14;26.40;10.20
12053;DHT22;6087;48.982;12.064;2023-09-12T12:01:44;26.50;10.40
12053;DHT22;6087;48.982;12.064;2023-09-12T12:04:11;26.50;10.20
12053;DHT22;6087;48.982;12.064;2023-09-12T12:06:38;26.60;10.40
12053;DHT22;6087;48.982;12.064;2023-09-12T12:09:06;26.70;9.90
12053;DHT22;6087;48.982;12.064;2023-09-12T12:11:34;26.80;8.70
12053;DHT22;6087;48.982;12.064;2023-09-12T12:14:10;26.90;6.40
12053;DHT22;6087;48.982;12.064;2023-09-12T12:16:37;27.00;9.20
12053;DHT22;6087;48.982;12.064;2023-09-12T12:19:04;27.00;9.80
12053;DHT22;6087;48.982;12.064;2023-09-12T12:21:37;27.10;11.40
12053;DHT22;6087;48.982;12.064;2023-09-12T12:24:07;27.30;8.30
12053;DHT22;6087;48.982;12.064;2023-09-12T12:26:35;27.40;4.50
12053;DHT22;6087;48.982;12.064;2023-09-12T12:29:05;27.50;3.20
12053;DHT22;6087;48.982;12.064;2023-09-12T12:31:32;27.70;2.20
12053;DHT22;6087;48.982;12.064;2023-09-12T12:34:05;27.90;2.20
12053;DHT22;6087;48.982;12.064;2023-09-12T12:36:41;28.00;3.00
12053;DHT22;6087;48.982;12.064;2023-09-12T12:39:10;28.10;1.00
12053;DHT22;6087;48.982;12.064;2023-09-12T12:41:39;28.20;1.00
12053;DHT22;6087;48.982;12.064;2023-09-12T12:44:06;28.30;1.00
12053;DHT22;6087;48.982;12.064;2023-09-12T12:46:33;28.40;1.00
12053;DHT22;6087;48.982;12.064;2023-09-12T12:49:00;28.50;2.00
12053;DHT22;6087;48.982;12.064;2023-09-12T12:51:28;28.60;1.00
12053;DHT22;6087;48.982;12.064;2023-09-12T12:54:03;28.70;1.00
12053;DHT22;6087;48.982;12.064;2023-09-12T12:56:31;28.70;1.00
12053;DHT22;6087;48.982;12.064;2023-09-12T12:59:04;28.70;1.00
12053;DHT22;6087;48.982;12.064;2023-09-12T13:01:34;28.80;1.00
12053;DHT22;6087;48.982;12.064;2023-09-12T13:04:01;28.80;1.00
12053;DHT22;6087;48.982;12.064;2023-09-12T13:06:28;28.90;1.00
12053;DHT22;6087;48.982;12.064;2023-09-12T13:08:55;28.90;1.00
12053;DHT22;6087;48.982;12.064;2023-09-12T13:11:30;28.90;1.00
12053;DHT22;6087;48.982;12.064;2023-09-12T13:13:59;28.90;1.00
12053;DHT22;6087;48.982;12.064;2023-09-12T13:16:28;28.80;1.00
12053;DHT22;6087;48.982;12.064;2023-09-12T13:18:55;28.70;1.00
12053;DHT22;6087;48.982;12.064;2023-09-12T13:21:22;28.60;1.00
12053;DHT22;6087;48.982;12.064;2023-09-12T13:23:49;28.70;1.00
12053;DHT22;6087;48.982;12.064;2023-09-12T13:26:16;28.70;1.00
12053;DHT22;6087;48.982;12.064;2023-09-12T13:28:43;28.80;1.00
12053;DHT22;6087;48.982;12.064;2023-09-12T13:31:10;28.80;1.00
12053;DHT22;6087;48.982;12.064;2023-09-12T13:33:38;28.90;1.00
12053;DHT22;6087;48.982;12.064;2023-09-12T13:36:07;28.90;1.00
12053;DHT22;6087;48.982;12.064;2023-09-12T13:38:34;28.90;1.00
12053;DHT22;6087;48.982;12.064;2023-09-12T13:41:01;28.90;1.00
12053;DHT22;6087;48.982;12.064;2023-09-12T13:43:29;28.90;1.00
12053;DHT22;6087;48.982;12.064;2023-09-12T13:45:57;28.90;1.00
12053;DHT22;6087;48.982;12.064;2023-09-12T13:48:23;29.00;1.00
12053;DHT22;6087;48.982;12.064;2023-09-12T13:50:55;29.00;1.00
12053;DHT22;6087;48.982;12.064;2023-09-12T13:53:22;29.00;1.00
12053;DHT22;6087;48.982;12.064;2023-09-12T13:55:48;29.00;1.00
12053;DHT22;6087;48.982;12.064;2023-09-12T13:58:15;29.00;1.00
12053;DHT22;6087;48.982;12.064;2023-09-12T14:00:43;29.00;1.00
12053;DHT22;6087;48.982;12.064;2023-09-12T14:03:10;29.00;1.00
12053;DHT22;6087;48.982;12.064;2023-09-12T14:05:37;29.00;1.00
12053;DHT22;6087;48.982;12.064;2023-09-12T14:08:06;29.10;1.00
12053;DHT22;6087;48.982;12.064;2023-09-12T14:10:32;29.10;1.00
12053;DHT22;6087;48.982;12.064;2023-09-12T14:12:59;29.10;1.00
12053;DHT22;6087;48.982;12.064;2023-09-12T14:15:26;29.10;1.00
12053;DHT22;6087;48.982;12.064;2023-09-12T14:17:53;29.20;1.00
12053;DHT22;6087;48.982;12.064;2023-09-12T14:20:20;29.20;1.00
12053;DHT22;6087;48.982;12.064;2023-09-12T14:22:47;29.10;1.00
12053;DHT22;6087;48.982;12.064;2023-09-12T14:25:15;29.10;1.00
12053;DHT22;6087;48.982;12.064;2023-09-12T14:27:43;29.20;1.00
12053;DHT22;6087;48.982;12.064;2023-09-12T14:30:11;29.20;1.00
12053;DHT22;6087;48.982;12.064;2023-09-12T14:32:38;29.20;1.00
12053;DHT22;6087;48.982;12.064;2023-09-12T14:35:06;29.20;1.00
12053;DHT22;6087;48.982;12.064;2023-09-12T14:37:33;29.20;1.00
12053;DHT22;6087;48.982;12.064;2023-09-12T14:40:03;29.10;1.00
12053;DHT22;6087;48.982;12.064;2023-09-12T14:42:32;29.10;1.00
12053;DHT22;6087;48.982;12.064;2023-09-12T14:44:59;29.10;1.00
12053;DHT22;6087;48.982;12.064;2023-09-12T14:47:26;29.10;1.00
12053;DHT22;6087;48.982;12.064;2023-09-12T14:49:56;29.10;1.00
12053;DHT22;6087;48.982;12.064;2023-09-12T14:52:31;29.10;1.00
12053;DHT22;6087;48.982;12.064;2023-09-12T14:55:00;29.10;1.00
12053;DHT22;6087;48.982;12.064;2023-09-12T14:57:28;29.10;1.00
12053;DHT22;6087;48.982;12.064;2023-09-12T14:59:57;29.00;1.00
12053;DHT22;6087;48.982;12.064;2023-09-12T15:02:25;29.00;1.00
12053;DHT22;6087;48.982;12.064;2023-09-12T15:04:56;29.00;1.00
12053;DHT22;6087;48.982;12.064;2023-09-12T15:07:24;29.00;1.00
12053;DHT22;6087;48.982;12.064;2023-09-12T15:09:54;29.00;1.00
12053;DHT22;6087;48.982;12.064;2023-09-12T15:12:22;28.90;1.00
12053;DHT22;6087;48.982;12.064;2023-09-12T15:14:50;28.90;1.00
12053;DHT22;6087;48.982;12.064;2023-09-12T15:17:18;28.90;1.00
12053;DHT22;6087;48.982;12.064;2023-09-12T15:19:46;28.90;1.00
12053;DHT22;6087;48.982;12.064;2023-09-12T15:22:14;28.80;1.00
12053;DHT22;6087;48.982;12.064;2023-09-12T15:24:41;28.80;1.00
12053;DHT22;6087;48.982;12.064;2023-09-12T15:27:08;28.70;1.00
12053;DHT22;6087;48.982;12.064;2023-09-12T15:29:35;28.80;1.00
12053;DHT22;6087;48.982;12.064;2023-09-12T15:32:02;28.70;1.00
12053;DHT22;6087;48.982;12.064;2023-09-12T15:34:32;28.60;1.00
12053;DHT22;6087;48.982;12.064;2023-09-12T15:37:07;28.60;1.00
12053;DHT22;6087;48.982;12.064;2023-09-12T15:39:42;28.50;1.00
12053;DHT22;6087;48.982;12.064;2023-09-12T15:42:09;28.50;1.00
12053;DHT22;6087;48.982;12.064;2023-09-12T15:44:36;28.40;1.00
12053;DHT22;6087;48.982;12.064;2023-09-12T15:47:03;28.40;1.00